sensor_id;sensor_type;location;lat;lon;timestamp;temperature;humidity
43151;DHT22;28755;51.478;5.702;2022-11-18T00:01:24;8.90;99.90
43151;DHT22;28755;51.478;5.702;2022-11-18T00:03:51;8.90;99.90
43151;DHT22;28755;51.478;5.702;2022-11-18T00:06:22;9.00;99.90
43151;DHT22;28755;51.478;5.702;2022-11-18T00:08:49;8.90;99.90
43151;DHT22;28755;51.478;5.702;2022-11-18T00:11:18;8.90;99.90
43151;DHT22;28755;51.478;5.702;2022-11-18T00:14:03;9.00;99.90
43151;DHT22;28755;51.478;5.702;2022-11-18T00:16:51;9.00;99.90
43151;DHT22;28755;51.478;5.702;2022-11-18T00:19:19;9.10;99.90
43151;DHT22;28755;51.478;5.702;2022-11-18T00:21:45;9.10;99.90
43151;DHT22;28755;51.478;5.702;2022-11-18T00:24:11;9.10;99.90
43151;DHT22;28755;51.478;5.702;2022-11-18T00:26:36;9.20;99.90
43151;DHT22;28755;51.478;5.702;2022-11-18T00:29:02;9.30;99.90
43151;DHT22;28755;51.478;5.702;2022-11-18T00:31:28;9.30;99.90
43151;DHT22;28755;51.478;5.702;2022-11-18T00:33:54;9.30;99.90
43151;DHT22;28755;51.478;5.702;2022-11-18T00:36:20;9.40;99.90
43151;DHT22;28755;51.478;5.702;2022-11-18T00:38:45;9.50;99.90
43151;DHT22;28755;51.478;5.702;2022-11-18T00:41:13;9.50;99.90
43151;DHT22;28755;51.478;5.702;2022-11-18T00:43:39;9.50;99.90
43151;DHT22;28755;51.478;5.702;2022-11-18T00:46:06;9.50;99.90
43151;DHT22;28755;51.478;5.702;2022-11-18T00:48:32;9.50;99.90
43151;DHT22;28755;51.478;5.702;2022-11-18T00:51:15;9.60;99.90
43151;DHT22;28755;51.478;5.702;2022-11-18T00:53:41;9.60;99.90
43151;DHT22;28755;51.478;5.702;2022-11-18T00:56:07;9.70;99.90
43151;DHT22;28755;51.478;5.702;2022-11-18T00:58:32;9.70;99.90
43151;DHT22;28755;51.478;5.702;2022-11-18T01:00:59;9.70;99.90
43151;DHT22;28755;51.478;5.702;2022-11-18T01:03:25;9.70;99.90
43151;DHT22;28755;51.478;5.702;2022-11-18T01:05:51;9.80;99.90
43151;DHT22;28755;51.478;5.702;2022-11-18T01:08:17;9.80;99.90
43151;DHT22;28755;51.478;5.702;2022-11-18T01:10:44;9.80;99.90
43151;DHT22;28755;51.478;5.702;2022-11-18T01:13:15;9.80;99.90
43151;DHT22;28755;51.478;5.702;2022-11-18T01:15:50;9.80;99.90
43151;DHT22;28755;51.478;5.702;2022-11-18T01:18:18;9.90;99.90
43151;DHT22;28755;51.478;5.702;2022-11-18T01:20:44;9.90;99.90
43151;DHT22;28755;51.478;5.702;2022-11-18T01:23:11;9.90;99.90
43151;DHT22;28755;51.478;5.702;2022-11-18T01:25:38;9.90;99.90
43151;DHT22;28755;51.478;5.702;2022-11-18T01:28:04;9.90;99.90
43151;DHT22;28755;51.478;5.702;2022-11-18T01:30:34;9.90;99.90
43151;DHT22;28755;51.478;5.702;2022-11-18T01:33:00;9.90;99.90
43151;DHT22;28755;51.478;5.702;2022-11-18T01:35:26;10.00;99.90
43151;DHT22;28755;51.478;5.702;2022-11-18T01:37:52;9.90;99.90
43151;DHT22;28755;51.478;5.702;2022-11-18T01:40:17;9.90;99.90
43151;DHT22;28755;51.478;5.702;2022-11-18T01:42:43;9.90;99.90
43151;DHT22;28755;51.478;5.702;2022-11-18T01:45:40;10.00;99.90
43151;DHT22;28755;51.478;5.702;2022-11-18T01:50:40;9.90;99.90
43151;DHT22;28755;51.478;5.702;2022-11-18T01:53:12;10.00;99.90
43151;DHT22;28755;51.478;5.702;2022-11-18T01:55:42;9.90;99.90
43151;DHT22;28755;51.478;5.702;2022-11-18T01:58:26;9.90;99.90
43151;DHT22;28755;51.478;5.702;2022-11-18T02:00:54;9.90;99.90
43151;DHT22;28755;51.478;5.702;2022-11-18T02:03:20;9.90;99.90
43151;DHT22;28755;51.478;5.702;2022-11-18T02:05:47;9.90;99.90
43151;DHT22;28755;51.478;5.702;2022-11-18T02:08:14;10.00;99.90
43151;DHT22;28755;51.478;5.702;2022-11-18T02:10:42;9.90;99.90
43151;DHT22;28755;51.478;5.702;2022-11-18T02:13:08;10.00;99.90
43151;DHT22;28755;51.478;5.702;2022-11-18T02:16:17;10.00;99.90
43151;DHT22;28755;51.478;5.702;2022-11-18T02:18:53;10.00;99.90
43151;DHT22;28755;51.478;5.702;2022-11-18T02:24:42;10.00;99.90
43151;DHT22;28755;51.478;5.702;2022-11-18T02:30:16;9.90;99.90
43151;DHT22;28755;51.478;5.702;2022-11-18T02:33:07;9.90;99.90
43151;DHT22;28755;51.478;5.702;2022-11-18T02:35:46;9.90;99.90
43151;DHT22;28755;51.478;5.702;2022-11-18T02:38:23;9.90;99.90
43151;DHT22;28755;51.478;5.702;2022-11-18T02:40:57;10.00;99.90
43151;DHT22;28755;51.478;5.702;2022-11-18T02:43:28;9.90;99.90
43151;DHT22;28755;51.478;5.702;2022-11-18T02:45:59;10.00;99.90
43151;DHT22;28755;51.478;5.702;2022-11-18T02:48:27;9.90;99.90
43151;DHT22;28755;51.478;5.702;2022-11-18T02:50:54;9.90;99.90
43151;DHT22;28755;51.478;5.702;2022-11-18T02:53:22;9.90;99.90
43151;DHT22;28755;51.478;5.702;2022-11-18T02:55:48;9.90;99.90
43151;DHT22;28755;51.478;5.702;2022-11-18T02:58:17;10.00;99.90
43151;DHT22;28755;51.478;5.702;2022-11-18T03:00:44;9.90;99.90
43151;DHT22;28755;51.478;5.702;2022-11-18T03:03:34;10.00;99.90
43151;DHT22;28755;51.478;5.702;2022-11-18T03:06:18;10.00;99.90
43151;DHT22;28755;51.478;5.702;2022-11-18T03:08:58;10.00;99.90
43151;DHT22;28755;51.478;5.702;2022-11-18T03:11:31;10.00;99.90
43151;DHT22;28755;51.478;5.702;2022-11-18T03:14:18;10.10;99.90
43151;DHT22;28755;51.478;5.702;2022-11-18T03:17:00;10.00;99.90
43151;DHT22;28755;51.478;5.702;2022-11-18T03:24:38;10.10;99.90
43151;DHT22;28755;51.478;5.702;2022-11-18T03:27:19;10.00;99.90
43151;DHT22;28755;51.478;5.702;2022-11-18T03:29:57;10.10;99.90
43151;DHT22;28755;51.478;5.702;2022-11-18T03:32:26;10.10;99.90
43151;DHT22;28755;51.478;5.702;2022-11-18T03:35:10;10.10;99.90
43151;DHT22;28755;51.478;5.702;2022-11-18T03:37:37;10.10;99.90
43151;DHT22;28755;51.478;5.702;2022-11-18T03:40:17;10.10;99.90
43151;DHT22;28755;51.478;5.702;2022-11-18T03:42:48;10.00;99.90
43151;DHT22;28755;51.478;5.702;2022-11-18T03:45:30;10.00;99.90
43151;DHT22;28755;51.478;5.702;2022-11-18T03:48:25;10.00;99.90
43151;DHT22;28755;51.478;5.702;2022-11-18T03:51:20;10.00;99.90
43151;DHT22;28755;51.478;5.702;2022-11-18T03:53:58;10.00;99.90
43151;DHT22;28755;51.478;5.702;2022-11-18T03:56:29;10.00;99.90
43151;DHT22;28755;51.478;5.702;2022-11-18T03:59:19;10.00;99.90
43151;DHT22;28755;51.478;5.702;2022-11-18T04:01:55;9.90;99.90
43151;DHT22;28755;51.478;5.702;2022-11-18T04:04:24;9.90;99.90
43151;DHT22;28755;51.478;5.702;2022-11-18T04:09:34;9.80;99.90
43151;DHT22;28755;51.478;5.702;2022-11-18T04:12:05;9.80;99.90
43151;DHT22;28755;51.478;5.702;2022-11-18T04:14:33;9.80;99.90
43151;DHT22;28755;51.478;5.702;2022-11-18T04:17:02;9.70;99.90
43151;DHT22;28755;51.478;5.702;2022-11-18T04:19:29;9.80;99.90
43151;DHT22;28755;51.478;5.702;2022-11-18T04:21:55;9.80;99.90
43151;DHT22;28755;51.478;5.702;2022-11-18T04:24:20;9.80;99.90
43151;DHT22;28755;51.478;5.702;2022-11-18T04:26:46;9.80;99.90
43151;DHT22;28755;51.478;5.702;2022-11-18T04:29:11;9.80;99.90
43151;DHT22;28755;51.478;5.702;2022-11-18T04:31:37;9.70;99.90
43151;DHT22;28755;51.478;5.702;2022-11-18T04:34:02;9.70;99.90
43151;DHT22;28755;51.478;5.702;2022-11-18T04:36:28;9.70;99.90
43151;DHT22;28755;51.478;5.702;2022-11-18T04:38:54;9.60;99.90
43151;DHT22;28755;51.478;5.702;2022-11-18T04:41:19;9.60;99.90
43151;DHT22;28755;51.478;5.702;2022-11-18T04:43:45;9.60;99.90
43151;DHT22;28755;51.478;5.702;2022-11-18T04:46:10;9.50;99.90
43151;DHT22;28755;51.478;5.702;2022-11-18T04:48:36;9.60;99.90
43151;DHT22;28755;51.478;5.702;2022-11-18T04:51:03;9.60;99.90
43151;DHT22;28755;51.478;5.702;2022-11-18T04:53:29;9.60;99.90
43151;DHT22;28755;51.478;5.702;2022-11-18T04:55:54;9.60;99.90
43151;DHT22;28755;51.478;5.702;2022-11-18T04:58:20;9.60;99.90
43151;DHT22;28755;51.478;5.702;2022-11-18T05:00:46;9.50;99.90
43151;DHT22;28755;51.478;5.702;2022-11-18T05:03:11;9.50;99.90
43151;DHT22;28755;51.478;5.702;2022-11-18T05:05:39;9.40;99.90
43151;DHT22;28755;51.478;5.702;2022-11-18T05:08:04;9.50;99.90
43151;DHT22;28755;51.478;5.702;2022-11-18T05:10:30;9.50;99.90
43151;DHT22;28755;51.478;5.702;2022-11-18T05:12:55;9.50;99.90
43151;DHT22;28755;51.478;5.702;2022-11-18T05:15:21;9.40;99.90
43151;DHT22;28755;51.478;5.702;2022-11-18T05:17:50;9.40;99.90
43151;DHT22;28755;51.478;5.702;2022-11-18T05:20:15;9.50;99.90
43151;DHT22;28755;51.478;5.702;2022-11-18T05:22:41;9.40;99.90
43151;DHT22;28755;51.478;5.702;2022-11-18T05:25:07;9.50;99.90
43151;DHT22;28755;51.478;5.702;2022-11-18T05:27:33;9.40;99.90
43151;DHT22;28755;51.478;5.702;2022-11-18T05:29:58;9.50;99.90
43151;DHT22;28755;51.478;5.702;2022-11-18T05:32:24;9.40;99.90
43151;DHT22;28755;51.478;5.702;2022-11-18T05:34:50;9.40;99.90
43151;DHT22;28755;51.478;5.702;2022-11-18T05:37:15;9.30;99.90
43151;DHT22;28755;51.478;5.702;2022-11-18T05:39:41;9.20;99.90
43151;DHT22;28755;51.478;5.702;2022-11-18T05:42:07;9.10;99.90
43151;DHT22;28755;51.478;5.702;2022-11-18T05:44:52;9.10;99.90
43151;DHT22;28755;51.478;5.702;2022-11-18T05:47:18;9.00;99.90
43151;DHT22;28755;51.478;5.702;2022-11-18T05:49:43;9.00;99.90
43151;DHT22;28755;51.478;5.702;2022-11-18T05:52:09;9.00;99.90
43151;DHT22;28755;51.478;5.702;2022-11-18T05:54:38;8.90;99.90
43151;DHT22;28755;51.478;5.702;2022-11-18T05:57:06;8.80;99.90
43151;DHT22;28755;51.478;5.702;2022-11-18T05:59:31;8.80;99.90
43151;DHT22;28755;51.478;5.702;2022-11-18T06:02:07;8.70;99.90
43151;DHT22;28755;51.478;5.702;2022-11-18T06:04:49;8.70;99.90
43151;DHT22;28755;51.478;5.702;2022-11-18T06:07:21;8.70;99.90
43151;DHT22;28755;51.478;5.702;2022-11-18T06:09:51;8.60;99.90
43151;DHT22;28755;51.478;5.702;2022-11-18T06:12:21;8.60;99.90
43151;DHT22;28755;51.478;5.702;2022-11-18T06:14:51;8.50;99.90
43151;DHT22;28755;51.478;5.702;2022-11-18T06:17:23;8.60;99.90
43151;DHT22;28755;51.478;5.702;2022-11-18T06:19:50;8.50;99.90
43151;DHT22;28755;51.478;5.702;2022-11-18T06:22:16;8.40;99.90
43151;DHT22;28755;51.478;5.702;2022-11-18T06:24:42;8.50;99.90
43151;DHT22;28755;51.478;5.702;2022-11-18T06:27:08;8.40;99.90
43151;DHT22;28755;51.478;5.702;2022-11-18T06:29:34;8.40;99.90
43151;DHT22;28755;51.478;5.702;2022-11-18T06:32:00;8.40;99.90
43151;DHT22;28755;51.478;5.702;2022-11-18T06:34:25;8.30;99.90
43151;DHT22;28755;51.478;5.702;2022-11-18T06:36:51;8.30;99.90
43151;DHT22;28755;51.478;5.702;2022-11-18T06:39:16;8.40;99.90
43151;DHT22;28755;51.478;5.702;2022-11-18T06:41:42;8.30;99.90
43151;DHT22;28755;51.478;5.702;2022-11-18T06:44:10;8.30;99.90
43151;DHT22;28755;51.478;5.702;2022-11-18T06:46:35;8.20;99.90
43151;DHT22;28755;51.478;5.702;2022-11-18T06:49:19;8.20;99.90
43151;DHT22;28755;51.478;5.702;2022-11-18T06:51:45;8.20;99.90
43151;DHT22;28755;51.478;5.702;2022-11-18T06:54:11;8.20;99.90
43151;DHT22;28755;51.478;5.702;2022-11-18T06:56:36;8.20;99.90
43151;DHT22;28755;51.478;5.702;2022-11-18T06:59:02;8.10;99.90
43151;DHT22;28755;51.478;5.702;2022-11-18T07:01:29;8.10;99.90
43151;DHT22;28755;51.478;5.702;2022-11-18T07:03:57;8.10;99.90
43151;DHT22;28755;51.478;5.702;2022-11-18T07:06:26;8.10;99.90
43151;DHT22;28755;51.478;5.702;2022-11-18T07:08:52;8.10;99.90
43151;DHT22;28755;51.478;5.702;2022-11-18T07:11:20;8.10;99.90
43151;DHT22;28755;51.478;5.702;2022-11-18T07:13:46;8.10;99.90
43151;DHT22;28755;51.478;5.702;2022-11-18T07:16:15;8.10;99.90
43151;DHT22;28755;51.478;5.702;2022-11-18T07:18:42;8.10;99.90
43151;DHT22;28755;51.478;5.702;2022-11-18T07:21:11;8.10;99.90
43151;DHT22;28755;51.478;5.702;2022-11-18T07:23:37;8.10;99.90
43151;DHT22;28755;51.478;5.702;2022-11-18T07:26:03;8.10;99.90
43151;DHT22;28755;51.478;5.702;2022-11-18T07:28:31;8.10;99.90
43151;DHT22;28755;51.478;5.702;2022-11-18T07:31:09;8.10;99.90
43151;DHT22;28755;51.478;5.702;2022-11-18T07:33:35;8.20;99.90
43151;DHT22;28755;51.478;5.702;2022-11-18T07:36:15;8.20;99.90
43151;DHT22;28755;51.478;5.702;2022-11-18T07:38:41;8.30;99.90
43151;DHT22;28755;51.478;5.702;2022-11-18T07:41:15;8.20;99.90
43151;DHT22;28755;51.478;5.702;2022-11-18T07:43:44;8.20;99.90
43151;DHT22;28755;51.478;5.702;2022-11-18T07:46:11;8.20;99.90
43151;DHT22;28755;51.478;5.702;2022-11-18T07:48:36;8.40;99.90
43151;DHT22;28755;51.478;5.702;2022-11-18T07:51:02;8.50;99.90
43151;DHT22;28755;51.478;5.702;2022-11-18T07:53:31;8.70;99.90
43151;DHT22;28755;51.478;5.702;2022-11-18T07:55:57;9.10;99.90
43151;DHT22;28755;51.478;5.702;2022-11-18T07:58:23;9.30;99.90
43151;DHT22;28755;51.478;5.702;2022-11-18T08:00:49;9.30;99.90
43151;DHT22;28755;51.478;5.702;2022-11-18T08:03:14;9.30;99.90
43151;DHT22;28755;51.478;5.702;2022-11-18T08:05:40;9.10;99.90
43151;DHT22;28755;51.478;5.702;2022-11-18T08:08:06;9.10;99.90
43151;DHT22;28755;51.478;5.702;2022-11-18T08:10:31;9.10;99.90
43151;DHT22;28755;51.478;5.702;2022-11-18T08:12:59;9.10;99.90
43151;DHT22;28755;51.478;5.702;2022-11-18T08:15:25;9.20;99.90
43151;DHT22;28755;51.478;5.702;2022-11-18T08:17:50;9.20;99.90
43151;DHT22;28755;51.478;5.702;2022-11-18T08:20:16;9.20;99.90
43151;DHT22;28755;51.478;5.702;2022-11-18T08:22:42;9.40;99.90
43151;DHT22;28755;51.478;5.702;2022-11-18T08:25:07;9.60;99.90
43151;DHT22;28755;51.478;5.702;2022-11-18T08:27:33;9.80;99.90
43151;DHT22;28755;51.478;5.702;2022-11-18T08:29:59;10.20;99.90
43151;DHT22;28755;51.478;5.702;2022-11-18T08:32:25;10.30;99.90
43151;DHT22;28755;51.478;5.702;2022-11-18T08:34:51;10.50;99.90
43151;DHT22;28755;51.478;5.702;2022-11-18T08:37:17;10.50;99.90
43151;DHT22;28755;51.478;5.702;2022-11-18T08:39:42;10.90;99.90
43151;DHT22;28755;51.478;5.702;2022-11-18T08:42:09;11.30;99.90
43151;DHT22;28755;51.478;5.702;2022-11-18T08:44:34;11.80;99.90
43151;DHT22;28755;51.478;5.702;2022-11-18T08:47:00;11.50;99.90
43151;DHT22;28755;51.478;5.702;2022-11-18T08:49:26;10.90;99.90
43151;DHT22;28755;51.478;5.702;2022-11-18T08:51:52;10.80;99.90
43151;DHT22;28755;51.478;5.702;2022-11-18T08:54:18;10.70;99.90
43151;DHT22;28755;51.478;5.702;2022-11-18T08:56:43;10.70;99.90
43151;DHT22;28755;51.478;5.702;2022-11-18T08:59:09;10.70;99.90
43151;DHT22;28755;51.478;5.702;2022-11-18T09:01:36;10.70;99.90
43151;DHT22;28755;51.478;5.702;2022-11-18T09:04:02;10.60;99.90
43151;DHT22;28755;51.478;5.702;2022-11-18T09:06:27;10.90;99.90
43151;DHT22;28755;51.478;5.702;2022-11-18T09:08:54;12.30;99.90
43151;DHT22;28755;51.478;5.702;2022-11-18T09:11:25;13.90;99.90
43151;DHT22;28755;51.478;5.702;2022-11-18T09:13:55;15.00;99.90
43151;DHT22;28755;51.478;5.702;2022-11-18T09:16:23;16.40;99.90
43151;DHT22;28755;51.478;5.702;2022-11-18T09:18:50;17.90;99.90
43151;DHT22;28755;51.478;5.702;2022-11-18T09:21:16;18.40;99.90
43151;DHT22;28755;51.478;5.702;2022-11-18T09:23:42;18.20;99.90
43151;DHT22;28755;51.478;5.702;2022-11-18T09:26:10;16.40;99.90
43151;DHT22;28755;51.478;5.702;2022-11-18T09:28:37;15.30;99.90
43151;DHT22;28755;51.478;5.702;2022-11-18T09:31:04;15.30;99.90
43151;DHT22;28755;51.478;5.702;2022-11-18T09:33:30;15.40;99.90
43151;DHT22;28755;51.478;5.702;2022-11-18T09:35:56;15.90;99.90
43151;DHT22;28755;51.478;5.702;2022-11-18T09:38:21;17.40;99.90
43151;DHT22;28755;51.478;5.702;2022-11-18T09:40:55;18.00;99.90
43151;DHT22;28755;51.478;5.702;2022-11-18T09:46:35;18.20;99.90
43151;DHT22;28755;51.478;5.702;2022-11-18T09:49:13;18.00;99.90
43151;DHT22;28755;51.478;5.702;2022-11-18T09:51:49;19.00;99.90
43151;DHT22;28755;51.478;5.702;2022-11-18T09:54:23;19.00;99.90
43151;DHT22;28755;51.478;5.702;2022-11-18T09:56:52;18.10;99.90
43151;DHT22;28755;51.478;5.702;2022-11-18T09:59:20;17.70;99.90
43151;DHT22;28755;51.478;5.702;2022-11-18T10:01:47;18.00;99.90
43151;DHT22;28755;51.478;5.702;2022-11-18T10:04:16;18.40;99.90
43151;DHT22;28755;51.478;5.702;2022-11-18T10:06:43;19.40;99.90
43151;DHT22;28755;51.478;5.702;2022-11-18T10:09:17;20.20;99.90
43151;DHT22;28755;51.478;5.702;2022-11-18T10:12:04;20.10;99.90
43151;DHT22;28755;51.478;5.702;2022-11-18T10:14:59;20.00;99.90
43151;DHT22;28755;51.478;5.702;2022-11-18T10:22:57;19.10;99.90
43151;DHT22;28755;51.478;5.702;2022-11-18T10:25:24;18.80;99.90
43151;DHT22;28755;51.478;5.702;2022-11-18T10:27:50;17.30;99.90
43151;DHT22;28755;51.478;5.702;2022-11-18T10:30:19;15.80;99.90
43151;DHT22;28755;51.478;5.702;2022-11-18T10:33:01;15.50;99.90
43151;DHT22;28755;51.478;5.702;2022-11-18T10:35:32;15.50;99.90
43151;DHT22;28755;51.478;5.702;2022-11-18T10:38:04;17.20;99.90
43151;DHT22;28755;51.478;5.702;2022-11-18T10:40:32;19.00;99.90
43151;DHT22;28755;51.478;5.702;2022-11-18T10:42:58;20.50;99.90
43151;DHT22;28755;51.478;5.702;2022-11-18T10:45:29;19.90;99.90
43151;DHT22;28755;51.478;5.702;2022-11-18T10:50:49;21.30;99.90
43151;DHT22;28755;51.478;5.702;2022-11-18T10:53:35;20.40;99.90
43151;DHT22;28755;51.478;5.702;2022-11-18T10:56:12;20.90;99.90
43151;DHT22;28755;51.478;5.702;2022-11-18T10:58:42;21.20;99.90
43151;DHT22;28755;51.478;5.702;2022-11-18T11:03:56;19.10;99.90
43151;DHT22;28755;51.478;5.702;2022-11-18T11:08:52;16.40;99.90
43151;DHT22;28755;51.478;5.702;2022-11-18T11:11:25;14.90;99.90
43151;DHT22;28755;51.478;5.702;2022-11-18T11:16:28;13.50;99.90
43151;DHT22;28755;51.478;5.702;2022-11-18T11:18:59;13.40;99.90
43151;DHT22;28755;51.478;5.702;2022-11-18T11:21:25;13.40;99.90
43151;DHT22;28755;51.478;5.702;2022-11-18T11:23:52;13.10;99.90
43151;DHT22;28755;51.478;5.702;2022-11-18T11:26:22;13.00;99.90
43151;DHT22;28755;51.478;5.702;2022-11-18T11:37:18;12.40;99.90
43151;DHT22;28755;51.478;5.702;2022-11-18T11:43:22;12.80;99.90
43151;DHT22;28755;51.478;5.702;2022-11-18T11:46:15;13.10;99.90
43151;DHT22;28755;51.478;5.702;2022-11-18T11:48:52;12.80;99.90
43151;DHT22;28755;51.478;5.702;2022-11-18T11:51:32;12.60;99.90
43151;DHT22;28755;51.478;5.702;2022-11-18T11:57:04;12.60;99.90
43151;DHT22;28755;51.478;5.702;2022-11-18T11:59:51;12.60;99.90
43151;DHT22;28755;51.478;5.702;2022-11-18T12:05:31;12.40;99.90
43151;DHT22;28755;51.478;5.702;2022-11-18T12:10:41;12.50;99.90
43151;DHT22;28755;51.478;5.702;2022-11-18T12:13:31;12.40;99.90
43151;DHT22;28755;51.478;5.702;2022-11-18T12:21:01;12.10;99.90
43151;DHT22;28755;51.478;5.702;2022-11-18T12:23:29;12.30;99.90
43151;DHT22;28755;51.478;5.702;2022-11-18T12:25:57;12.30;99.90
43151;DHT22;28755;51.478;5.702;2022-11-18T12:34:03;12.30;99.90
43151;DHT22;28755;51.478;5.702;2022-11-18T12:36:37;12.30;99.90
43151;DHT22;28755;51.478;5.702;2022-11-18T12:42:03;12.70;99.90
43151;DHT22;28755;51.478;5.702;2022-11-18T12:44:49;12.80;99.90
43151;DHT22;28755;51.478;5.702;2022-11-18T12:50:16;14.20;99.90
43151;DHT22;28755;51.478;5.702;2022-11-18T12:55:30;18.10;99.90
43151;DHT22;28755;51.478;5.702;2022-11-18T12:57:56;17.50;99.90
43151;DHT22;28755;51.478;5.702;2022-11-18T13:02:55;15.40;99.90
43151;DHT22;28755;51.478;5.702;2022-11-18T13:05:26;14.50;99.90
43151;DHT22;28755;51.478;5.702;2022-11-18T13:08:05;14.00;99.90
43151;DHT22;28755;51.478;5.702;2022-11-18T13:10:43;13.70;99.90
43151;DHT22;28755;51.478;5.702;2022-11-18T13:13:31;13.50;99.90
43151;DHT22;28755;51.478;5.702;2022-11-18T13:16:18;13.20;99.90
43151;DHT22;28755;51.478;5.702;2022-11-18T13:19:03;13.00;99.90
43151;DHT22;28755;51.478;5.702;2022-11-18T13:21:28;12.80;99.90
43151;DHT22;28755;51.478;5.702;2022-11-18T13:24:14;12.60;99.90
43151;DHT22;28755;51.478;5.702;2022-11-18T13:26:43;12.40;99.90
43151;DHT22;28755;51.478;5.702;2022-11-18T13:32:25;12.30;99.90
43151;DHT22;28755;51.478;5.702;2022-11-18T13:37:51;12.40;99.90
43151;DHT22;28755;51.478;5.702;2022-11-18T13:40:26;12.40;99.90
43151;DHT22;28755;51.478;5.702;2022-11-18T13:42:53;12.30;99.90
43151;DHT22;28755;51.478;5.702;2022-11-18T13:45:19;12.50;99.90
43151;DHT22;28755;51.478;5.702;2022-11-18T13:47:59;12.40;99.90
43151;DHT22;28755;51.478;5.702;2022-11-18T13:50:38;12.40;99.90
43151;DHT22;28755;51.478;5.702;2022-11-18T13:55:49;12.40;99.90
43151;DHT22;28755;51.478;5.702;2022-11-18T14:00:55;12.20;99.90
43151;DHT22;28755;51.478;5.702;2022-11-18T14:03:31;12.30;99.90
43151;DHT22;28755;51.478;5.702;2022-11-18T14:05:58;12.20;99.90
43151;DHT22;28755;51.478;5.702;2022-11-18T14:08:31;12.30;99.90
43151;DHT22;28755;51.478;5.702;2022-11-18T14:10:59;12.30;99.90
43151;DHT22;28755;51.478;5.702;2022-11-18T14:13:31;12.30;99.90
43151;DHT22;28755;51.478;5.702;2022-11-18T14:16:02;12.30;99.90
43151;DHT22;28755;51.478;5.702;2022-11-18T14:18:46;12.30;99.90
43151;DHT22;28755;51.478;5.702;2022-11-18T14:21:13;12.40;99.90
43151;DHT22;28755;51.478;5.702;2022-11-18T14:23:42;12.40;99.90
43151;DHT22;28755;51.478;5.702;2022-11-18T14:26:08;12.50;99.90
43151;DHT22;28755;51.478;5.702;2022-11-18T14:28:36;12.50;99.90
43151;DHT22;28755;51.478;5.702;2022-11-18T14:36:37;12.40;99.90
43151;DHT22;28755;51.478;5.702;2022-11-18T14:39:17;12.40;99.90
43151;DHT22;28755;51.478;5.702;2022-11-18T14:41:43;12.30;99.90
43151;DHT22;28755;51.478;5.702;2022-11-18T14:44:12;12.30;99.90
43151;DHT22;28755;51.478;5.702;2022-11-18T14:46:38;12.40;99.90
43151;DHT22;28755;51.478;5.702;2022-11-18T14:49:11;12.20;99.90
43151;DHT22;28755;51.478;5.702;2022-11-18T14:51:37;12.10;99.90
43151;DHT22;28755;51.478;5.702;2022-11-18T14:54:03;12.00;99.90
43151;DHT22;28755;51.478;5.702;2022-11-18T14:56:30;11.90;99.90
43151;DHT22;28755;51.478;5.702;2022-11-18T14:58:56;11.90;99.90
43151;DHT22;28755;51.478;5.702;2022-11-18T15:01:22;11.80;99.90
43151;DHT22;28755;51.478;5.702;2022-11-18T15:03:53;11.70;99.90
43151;DHT22;28755;51.478;5.702;2022-11-18T15:06:20;11.70;99.90
43151;DHT22;28755;51.478;5.702;2022-11-18T15:08:48;11.60;99.90
43151;DHT22;28755;51.478;5.702;2022-11-18T15:11:14;11.50;99.90
43151;DHT22;28755;51.478;5.702;2022-11-18T15:13:40;11.60;99.90
43151;DHT22;28755;51.478;5.702;2022-11-18T15:16:17;11.50;99.90
43151;DHT22;28755;51.478;5.702;2022-11-18T15:18:44;11.30;99.90
43151;DHT22;28755;51.478;5.702;2022-11-18T15:21:11;11.20;99.90
43151;DHT22;28755;51.478;5.702;2022-11-18T15:23:36;11.10;99.90
43151;DHT22;28755;51.478;5.702;2022-11-18T15:26:08;11.10;99.90
43151;DHT22;28755;51.478;5.702;2022-11-18T15:28:36;11.10;99.90
43151;DHT22;28755;51.478;5.702;2022-11-18T15:31:04;11.00;99.90
43151;DHT22;28755;51.478;5.702;2022-11-18T15:33:29;11.00;99.90
43151;DHT22;28755;51.478;5.702;2022-11-18T15:35:57;11.00;99.90
43151;DHT22;28755;51.478;5.702;2022-11-18T15:38:23;11.00;99.90
43151;DHT22;28755;51.478;5.702;2022-11-18T15:40:48;10.90;99.90
43151;DHT22;28755;51.478;5.702;2022-11-18T15:43:14;10.80;99.90
43151;DHT22;28755;51.478;5.702;2022-11-18T15:45:42;10.90;99.90
43151;DHT22;28755;51.478;5.702;2022-11-18T15:48:07;10.80;99.90
43151;DHT22;28755;51.478;5.702;2022-11-18T15:50:33;10.80;99.90
43151;DHT22;28755;51.478;5.702;2022-11-18T15:52:58;10.80;99.90
43151;DHT22;28755;51.478;5.702;2022-11-18T15:55:24;10.80;99.90
43151;DHT22;28755;51.478;5.702;2022-11-18T15:57:50;10.80;99.90
43151;DHT22;28755;51.478;5.702;2022-11-18T16:00:15;10.70;99.90
43151;DHT22;28755;51.478;5.702;2022-11-18T16:02:41;10.60;99.90
43151;DHT22;28755;51.478;5.702;2022-11-18T16:05:07;10.60;99.90
43151;DHT22;28755;51.478;5.702;2022-11-18T16:07:33;10.60;99.90
43151;DHT22;28755;51.478;5.702;2022-11-18T16:09:58;10.60;99.90
43151;DHT22;28755;51.478;5.702;2022-11-18T16:12:42;10.60;99.90
43151;DHT22;28755;51.478;5.702;2022-11-18T16:15:11;10.60;99.90
43151;DHT22;28755;51.478;5.702;2022-11-18T16:17:55;10.60;99.90
43151;DHT22;28755;51.478;5.702;2022-11-18T16:20:21;10.60;99.90
43151;DHT22;28755;51.478;5.702;2022-11-18T16:22:46;10.70;99.90
43151;DHT22;28755;51.478;5.702;2022-11-18T16:25:12;10.60;99.90
43151;DHT22;28755;51.478;5.702;2022-11-18T16:27:38;10.60;99.90
43151;DHT22;28755;51.478;5.702;2022-11-18T16:30:04;10.60;99.90
43151;DHT22;28755;51.478;5.702;2022-11-18T16:32:29;10.60;99.90
43151;DHT22;28755;51.478;5.702;2022-11-18T16:34:55;10.60;99.90
43151;DHT22;28755;51.478;5.702;2022-11-18T16:37:29;10.60;99.90
43151;DHT22;28755;51.478;5.702;2022-11-18T16:40:09;10.60;99.90
43151;DHT22;28755;51.478;5.702;2022-11-18T16:42:38;10.60;99.90
43151;DHT22;28755;51.478;5.702;2022-11-18T16:45:04;10.60;99.90
43151;DHT22;28755;51.478;5.702;2022-11-18T16:47:29;10.50;99.90
43151;DHT22;28755;51.478;5.702;2022-11-18T16:49:55;10.50;99.90
43151;DHT22;28755;51.478;5.702;2022-11-18T16:52:20;10.40;99.90
43151;DHT22;28755;51.478;5.702;2022-11-18T16:54:46;10.40;99.90
43151;DHT22;28755;51.478;5.702;2022-11-18T16:57:12;10.40;99.90
43151;DHT22;28755;51.478;5.702;2022-11-18T16:59:38;10.50;99.90
43151;DHT22;28755;51.478;5.702;2022-11-18T17:02:04;10.40;99.90
43151;DHT22;28755;51.478;5.702;2022-11-18T17:04:30;10.40;99.90
43151;DHT22;28755;51.478;5.702;2022-11-18T17:06:56;10.30;99.90
43151;DHT22;28755;51.478;5.702;2022-11-18T17:09:25;10.30;99.90
43151;DHT22;28755;51.478;5.702;2022-11-18T17:11:52;10.40;99.90
43151;DHT22;28755;51.478;5.702;2022-11-18T17:14:18;10.30;99.90
43151;DHT22;28755;51.478;5.702;2022-11-18T17:16:44;10.30;99.90
43151;DHT22;28755;51.478;5.702;2022-11-18T17:19:15;10.30;99.90
43151;DHT22;28755;51.478;5.702;2022-11-18T17:21:41;10.20;99.90
43151;DHT22;28755;51.478;5.702;2022-11-18T17:24:08;10.30;99.90
43151;DHT22;28755;51.478;5.702;2022-11-18T17:26:34;10.20;99.90
43151;DHT22;28755;51.478;5.702;2022-11-18T17:29:00;10.30;99.90